createdAt,value
2023-06-07T00:00:55.299Z,96634.34
2023-06-07T00:02:56.901Z,96638.53
2023-06-07T00:04:58.523Z,96635.75
2023-06-07T00:07:00.136Z,96634.56
2023-06-07T00:09:01.652Z,96637.94
2023-06-07T00:11:04.569Z,96636.03
2023-06-07T00:13:06.185Z,96637.28
2023-06-07T00:15:08.315Z,96632.53
2023-06-07T00:17:09.918Z,96633.00
2023-06-07T00:19:11.496Z,96636.31
2023-06-07T00:21:13.027Z,96637.16
2023-06-07T00:23:14.578Z,96632.22
2023-06-07T00:25:16.083Z,96638.16
2023-06-07T00:27:19.484Z,96644.72
2023-06-07T00:29:20.995Z,96641.81
2023-06-07T00:31:22.649Z,96637.50
2023-06-07T00:33:24.267Z,96637.88
2023-06-07T00:35:25.845Z,96637.94
2023-06-07T00:37:27.353Z,96632.81
2023-06-07T00:39:28.881Z,96638.81
2023-06-07T00:41:30.434Z,96634.81
2023-06-07T00:43:33.304Z,96635.03
2023-06-07T00:45:34.868Z,96630.53
2023-06-07T00:47:38.214Z,96628.13
2023-06-07T00:49:39.875Z,96635.19
2023-06-07T00:51:41.477Z,96629.84
2023-06-07T00:53:45.499Z,96622.03
2023-06-07T00:55:47.085Z,96633.38
2023-06-07T00:57:48.718Z,96637.31
2023-06-07T00:59:51.856Z,96641.41
2023-06-07T01:01:53.605Z,96626.19
2023-06-07T01:03:56.053Z,96626.97
2023-06-07T01:05:57.633Z,96629.41
2023-06-07T01:07:59.478Z,96629.47
2023-06-07T01:10:01.679Z,96633.97
2023-06-07T01:12:05.653Z,96625.84
2023-06-07T01:14:08.473Z,96604.03
2023-06-07T01:16:11.510Z,96629.78
2023-06-07T01:18:13.488Z,96632.06
2023-06-07T01:20:20.433Z,96633.06
2023-06-07T01:22:25.954Z,96633.63
2023-06-07T01:24:28.907Z,96631.13
2023-06-07T01:26:31.402Z,96626.41
2023-06-07T01:28:34.862Z,96600.28
2023-06-07T01:30:36.803Z,96629.94
2023-06-07T01:32:40.747Z,96617.97
2023-06-07T01:34:42.916Z,96628.22
2023-06-07T01:36:44.747Z,96620.22
2023-06-07T01:38:47.686Z,96615.84
2023-06-07T01:40:52.547Z,96614.72
2023-06-07T01:42:55.347Z,96618.88
2023-06-07T01:44:59.378Z,96614.78
2023-06-07T01:47:01.098Z,96615.19
2023-06-07T01:49:04.349Z,96616.38
2023-06-07T01:51:05.923Z,96620.91
2023-06-07T01:53:07.430Z,96615.16
2023-06-07T01:55:09.328Z,96615.75
2023-06-07T01:57:22.674Z,96609.41
2023-06-07T01:59:33.996Z,96617.63
2023-06-07T02:01:43.224Z,96602.44
2023-06-07T02:03:49.840Z,96615.59
2023-06-07T02:05:57.360Z,96614.81
2023-06-07T02:08:02.040Z,96604.50
2023-06-07T02:10:05.316Z,96592.38
2023-06-07T02:12:09.704Z,96608.38
2023-06-07T02:14:13.172Z,96607.38
2023-06-07T02:16:15.114Z,96599.16
2023-06-07T02:18:20.054Z,96600.19
2023-06-07T02:20:21.909Z,96603.03
2023-06-07T02:22:23.424Z,96611.06
2023-06-07T02:24:25.003Z,96604.47
2023-06-07T02:26:26.531Z,96610.44
2023-06-07T02:28:28.080Z,96608.03
2023-06-07T02:30:30.980Z,96608.63
2023-06-07T02:32:32.508Z,96607.00
2023-06-07T02:34:34.080Z,96607.00
2023-06-07T02:36:35.575Z,96614.84
2023-06-07T02:38:37.094Z,96608.25
2023-06-07T02:40:38.773Z,96603.31
2023-06-07T02:42:44.215Z,96592.22
2023-06-07T02:44:45.735Z,96609.91
2023-06-07T02:46:48.703Z,96618.34
2023-06-07T02:48:50.250Z,96602.91
2023-06-07T02:50:51.783Z,96603.53
2023-06-07T02:52:53.330Z,96607.19
2023-06-07T02:54:54.877Z,96606.38
2023-06-07T02:56:56.406Z,96610.69
2023-06-07T02:58:57.964Z,96600.00
2023-06-07T03:00:59.530Z,96610.72
2023-06-07T03:03:02.493Z,96606.84
2023-06-07T03:05:04.717Z,96610.94
2023-06-07T03:07:06.515Z,96619.38
2023-06-07T03:09:08.152Z,96608.66
2023-06-07T03:11:09.683Z,96617.31
2023-06-07T03:13:11.274Z,96609.88
2023-06-07T03:15:12.884Z,96615.25
2023-06-07T03:17:15.318Z,96623.44
2023-06-07T03:19:18.184Z,96613.56
2023-06-07T03:21:19.689Z,96620.19
2023-06-07T03:23:21.229Z,96616.69
2023-06-07T03:25:22.898Z,96618.72
2023-06-07T03:27:24.576Z,96620.38
2023-06-07T03:29:26.127Z,96612.16
2023-06-07T03:31:27.760Z,96614.84
2023-06-07T03:33:29.367Z,96616.06
2023-06-07T03:35:32.234Z,96617.94
2023-06-07T03:37:33.740Z,96602.91
2023-06-07T03:39:35.528Z,96614.44
2023-06-07T03:41:37.467Z,96612.78
2023-06-07T03:43:39.014Z,96610.94
2023-06-07T03:45:40.517Z,96622.22
2023-06-07T03:47:42.101Z,96618.53
2023-06-07T03:49:43.647Z,96619.56
2023-06-07T03:51:46.518Z,96622.22
2023-06-07T03:53:48.047Z,96629.19
2023-06-07T03:55:49.680Z,96623.84
2023-06-07T03:57:51.220Z,96628.78
2023-06-07T03:59:52.802Z,96627.53
2023-06-07T04:01:54.345Z,96626.72
2023-06-07T04:03:55.982Z,96620.38
2023-06-07T04:05:57.798Z,96618.13
2023-06-07T04:08:00.830Z,96627.97
2023-06-07T04:10:02.779Z,96628.63
2023-06-07T04:12:05.608Z,96622.88
2023-06-07T04:14:07.166Z,96617.44
2023-06-07T04:16:08.862Z,96609.44
2023-06-07T04:18:10.418Z,96631.66
2023-06-07T04:20:12.861Z,96620.13
2023-06-07T04:22:14.526Z,96621.81
2023-06-07T04:24:17.510Z,96622.00
2023-06-07T04:26:19.157Z,96620.19
2023-06-07T04:28:21.007Z,96622.88
2023-06-07T04:30:22.544Z,96628.22
2023-06-07T04:32:24.094Z,96626.00
2023-06-07T04:34:25.669Z,96625.97
2023-06-07T04:36:27.188Z,96635.03
2023-06-07T04:38:28.718Z,96621.84
2023-06-07T04:40:31.780Z,96611.56
2023-06-07T04:42:33.771Z,96625.16
2023-06-07T04:44:35.341Z,96618.13
2023-06-07T04:46:37.002Z,96630.69
2023-06-07T04:48:38.631Z,96624.94
2023-06-07T04:50:40.329Z,96627.22
2023-06-07T04:52:41.817Z,96619.38
2023-06-07T04:54:43.357Z,96619.75
2023-06-07T04:56:46.312Z,96626.34
2023-06-07T04:58:47.845Z,96624.69
2023-06-07T05:00:49.620Z,96625.09
2023-06-07T05:02:51.203Z,96627.47
2023-06-07T05:04:52.802Z,96624.59
2023-06-07T05:06:54.393Z,96627.81
2023-06-07T05:08:56.015Z,96615.84
2023-06-07T05:10:57.598Z,96628.63
2023-06-07T05:13:00.509Z,96626.94
2023-06-07T05:15:02.151Z,96636.63
2023-06-07T05:17:03.832Z,96633.91
2023-06-07T05:19:05.369Z,96628.59
2023-06-07T05:21:06.891Z,96623.34
2023-06-07T05:23:08.411Z,96620.94
2023-06-07T05:25:11.374Z,96618.19
2023-06-07T05:27:12.891Z,96618.50
2023-06-07T05:29:15.777Z,96622.00
2023-06-07T05:31:17.366Z,96616.22
2023-06-07T05:33:18.913Z,96609.16
2023-06-07T05:35:20.700Z,96622.91
2023-06-07T05:37:22.283Z,96626.16
2023-06-07T05:39:23.840Z,96628.81
2023-06-07T05:41:25.362Z,96631.13
2023-06-07T05:43:26.989Z,96616.00
2023-06-07T05:45:29.949Z,96621.03
2023-06-07T05:47:31.506Z,96620.66
2023-06-07T05:49:33.050Z,96618.63
2023-06-07T05:51:34.598Z,96620.22
2023-06-07T05:53:36.101Z,96622.84
2023-06-07T05:55:37.911Z,96606.41
2023-06-07T05:57:39.446Z,96615.38
2023-06-07T05:59:40.973Z,96623.44
2023-06-07T06:01:43.954Z,96615.81
2023-06-07T06:03:45.550Z,96621.19
2023-06-07T06:05:47.095Z,96613.19
2023-06-07T06:07:48.663Z,96622.41
2023-06-07T06:09:50.219Z,96626.47
2023-06-07T06:11:51.748Z,96626.47
2023-06-07T06:13:53.286Z,96627.38
2023-06-07T06:15:54.786Z,96630.88
2023-06-07T06:17:57.806Z,96624.69
2023-06-07T06:19:59.398Z,96624.06
2023-06-07T06:22:00.923Z,96617.94
2023-06-07T06:24:02.548Z,96619.59
2023-06-07T06:26:04.242Z,96624.97
2023-06-07T06:28:05.874Z,96615.56
2023-06-07T06:30:09.228Z,96608.53
2023-06-07T06:32:10.738Z,96623.31
2023-06-07T06:34:13.624Z,96622.03
2023-06-07T06:36:15.158Z,96625.22
2023-06-07T06:38:16.668Z,96625.94
2023-06-07T06:40:20.219Z,96621.28
2023-06-07T06:42:21.587Z,96626.50
2023-06-07T06:44:23.101Z,96622.47
2023-06-07T06:46:24.615Z,96626.59
2023-06-07T06:48:26.168Z,96624.28
2023-06-07T06:50:32.987Z,96622.28
2023-06-07T06:52:35.259Z,96627.19
2023-06-07T06:54:36.844Z,96627.44
2023-06-07T06:56:38.425Z,96629.31
2023-06-07T06:58:39.989Z,96629.28
2023-06-07T07:00:41.576Z,96630.00
2023-06-07T07:02:43.111Z,96631.91
2023-06-07T07:04:44.638Z,96631.78
2023-06-07T07:06:47.549Z,96632.34
2023-06-07T07:08:49.043Z,96615.69
2023-06-07T07:10:50.563Z,96631.50
2023-06-07T07:12:53.512Z,96633.84
2023-06-07T07:14:55.019Z,96636.44
2023-06-07T07:16:56.735Z,96636.66
2023-06-07T07:18:58.468Z,96645.53
2023-06-07T07:20:59.998Z,96627.84
2023-06-07T07:23:02.945Z,96633.38
2023-06-07T07:25:05.037Z,96639.44
2023-06-07T07:27:07.032Z,96637.69
2023-06-07T07:29:08.600Z,96643.38
2023-06-07T07:31:10.134Z,96650.69
2023-06-07T07:33:12.149Z,96629.88
2023-06-07T07:35:14.164Z,96638.28
2023-06-07T07:37:15.874Z,96638.94
2023-06-07T07:39:19.018Z,96643.50
2023-06-07T07:41:20.666Z,96629.44
2023-06-07T07:43:22.200Z,96633.44
2023-06-07T07:45:23.694Z,96639.44
2023-06-07T07:47:25.349Z,96644.19
2023-06-07T07:49:26.879Z,96634.94
2023-06-07T07:51:28.430Z,96634.69
2023-06-07T07:53:30.028Z,96621.44
2023-06-07T07:55:33.063Z,96637.81
2023-06-07T07:57:34.709Z,96623.31
2023-06-07T07:59:36.355Z,96619.75
2023-06-07T08:01:37.965Z,96633.72
2023-06-07T08:03:39.697Z,96627.63
2023-06-07T08:05:41.448Z,96629.50
2023-06-07T08:07:43.100Z,96631.81
2023-06-07T08:09:45.157Z,96628.22
2023-06-07T08:11:48.084Z,96628.03
2023-06-07T08:13:49.624Z,96622.31
2023-06-07T08:15:51.217Z,96619.38
2023-06-07T08:17:52.792Z,96626.47
2023-06-07T08:19:54.364Z,96626.16
2023-06-07T08:21:55.880Z,96616.66
2023-06-07T08:23:57.428Z,96620.59
2023-06-07T08:25:59.048Z,96622.09
2023-06-07T08:28:03.776Z,96621.50
2023-06-07T08:30:06.913Z,96610.50
2023-06-07T08:32:09.053Z,96620.69
2023-06-07T08:34:10.489Z,96622.41
2023-06-07T08:36:12.110Z,96615.13
2023-06-07T08:38:13.708Z,96612.38
2023-06-07T08:40:19.109Z,96623.28
2023-06-07T08:42:20.832Z,96622.97
2023-06-07T08:44:23.798Z,96622.78
2023-06-07T08:46:26.083Z,96626.59
2023-06-07T08:48:27.700Z,96630.31
2023-06-07T08:50:30.025Z,96637.03
2023-06-07T08:52:32.482Z,96618.53
2023-06-07T08:54:34.716Z,96631.50
2023-06-07T08:56:36.845Z,96630.66
2023-06-07T08:58:38.526Z,96623.53
2023-06-07T09:00:41.846Z,96631.97
2023-06-07T09:02:43.562Z,96635.75
2023-06-07T09:04:45.576Z,96634.03
2023-06-07T09:06:47.149Z,96638.88
2023-06-07T09:08:49.212Z,96624.03
2023-06-07T09:10:51.068Z,96628.00
2023-06-07T09:12:52.638Z,96641.13
2023-06-07T09:14:55.108Z,96628.81
2023-06-07T09:16:59.184Z,96632.19
2023-06-07T09:19:00.766Z,96621.16
2023-06-07T09:21:06.962Z,96622.41
2023-06-07T09:23:10.410Z,96631.97
2023-06-07T09:25:12.503Z,96612.91
2023-06-07T09:27:14.384Z,96623.34
2023-06-07T09:29:16.214Z,96627.13
2023-06-07T09:31:28.464Z,96631.03
2023-06-07T09:33:32.445Z,96625.50
2023-06-07T09:35:34.051Z,96633.09
2023-06-07T09:37:42.577Z,96619.72
2023-06-07T09:39:44.109Z,96603.56
2023-06-07T09:41:45.746Z,96624.75
2023-06-07T09:43:49.053Z,96617.84
2023-06-07T09:45:53.902Z,96622.31
2023-06-07T09:48:02.441Z,96622.56
2023-06-07T09:50:09.821Z,96625.19
2023-06-07T09:52:13.352Z,96617.88
2023-06-07T09:54:14.969Z,96624.56
2023-06-07T09:56:19.902Z,96623.78
2023-06-07T09:58:22.015Z,96631.22
2023-06-07T10:00:23.608Z,96622.66
2023-06-07T10:02:26.093Z,96622.72
2023-06-07T10:04:27.901Z,96616.81
2023-06-07T10:06:32.579Z,96622.56
2023-06-07T10:08:34.513Z,96623.78
2023-06-07T10:10:36.554Z,96611.16
2023-06-07T10:12:40.568Z,96615.25
2023-06-07T10:14:45.590Z,96609.06
2023-06-07T10:16:52.854Z,96612.09
2023-06-07T10:18:58.127Z,96618.47
2023-06-07T10:21:06.649Z,96613.69
2023-06-07T10:23:14.900Z,96612.13
2023-06-07T10:25:20.134Z,96601.09
2023-06-07T10:27:24.660Z,96612.19
2023-06-07T10:29:33.288Z,96602.28
2023-06-07T10:31:41.185Z,96596.16
2023-06-07T10:33:43.908Z,96602.66
2023-06-07T10:35:47.578Z,96593.88
2023-06-07T10:37:50.178Z,96601.06
2023-06-07T10:39:53.118Z,96589.19
2023-06-07T10:41:55.179Z,96591.88
2023-06-07T10:43:56.865Z,96595.72
2023-06-07T10:46:17.441Z,96593.38
2023-06-07T10:48:35.902Z,96590.69
2023-06-07T10:50:47.412Z,96589.00
2023-06-07T10:52:55.902Z,96588.16
2023-06-07T10:54:58.876Z,96590.72
2023-06-07T10:57:01.483Z,96595.75
2023-06-07T10:59:21.159Z,96592.97
2023-06-07T11:01:23.692Z,96589.59
2023-06-07T11:03:41.199Z,96587.28
2023-06-07T11:06:07.652Z,96588.75
2023-06-07T11:08:22.484Z,96585.22
2023-06-07T11:10:35.094Z,96594.16
2023-06-07T11:12:55.269Z,96555.59
2023-06-07T11:15:20.982Z,96572.53
2023-06-07T11:17:50.818Z,96574.88
2023-06-07T11:19:55.505Z,96565.66
2023-06-07T11:22:04.308Z,96574.94
2023-06-07T11:24:13.146Z,96563.13
2023-06-07T11:26:16.077Z,96565.50
2023-06-07T11:28:23.368Z,96563.28
2023-06-07T11:30:25.105Z,96569.63
2023-06-07T11:32:26.833Z,96567.41
2023-06-07T11:34:31.038Z,96568.97
2023-06-07T11:36:33.172Z,96571.56
2023-06-07T11:38:34.717Z,96562.31
2023-06-07T11:40:37.978Z,96567.47
2023-06-07T11:42:41.601Z,96564.25
2023-06-07T11:44:44.658Z,96561.03
2023-06-07T11:46:46.292Z,96562.69
2023-06-07T11:48:47.886Z,96558.88
2023-06-07T11:50:49.509Z,96557.81
2023-06-07T11:52:53.037Z,96548.56
2023-06-07T11:54:54.594Z,96561.97
2023-06-07T11:56:56.214Z,96556.06
2023-06-07T11:58:59.635Z,96554.97
2023-06-07T12:01:02.013Z,96543.13
2023-06-07T12:03:05.569Z,96544.22
2023-06-07T12:05:09.456Z,96537.19
2023-06-07T12:07:20.876Z,96538.00
2023-06-07T12:09:22.473Z,96523.63
2023-06-07T12:11:24.067Z,96544.53
2023-06-07T12:13:25.620Z,96534.44
2023-06-07T12:15:30.730Z,96540.47
2023-06-07T12:17:33.186Z,96537.16
2023-06-07T12:19:34.761Z,96541.28
2023-06-07T12:21:36.318Z,96542.06
2023-06-07T12:23:38.908Z,96539.84
2023-06-07T12:25:41.098Z,96551.81
2023-06-07T12:27:45.336Z,96543.66
2023-06-07T12:29:54.169Z,96526.22
2023-06-07T12:31:57.667Z,96530.63
2023-06-07T12:34:01.506Z,96530.63
2023-06-07T12:36:03.122Z,96538.72
2023-06-07T12:38:05.002Z,96531.34
2023-06-07T12:40:08.408Z,96526.81
2023-06-07T12:42:10.149Z,96513.78
2023-06-07T12:44:12.110Z,96504.56
2023-06-07T12:46:13.758Z,96519.22
2023-06-07T12:48:16.781Z,96516.50
2023-06-07T12:50:18.359Z,96511.00
2023-06-07T12:52:19.949Z,96516.97
2023-06-07T12:54:21.558Z,96503.91
2023-06-07T12:56:23.327Z,96506.66
2023-06-07T12:58:24.836Z,96502.31
2023-06-07T13:00:26.483Z,96499.06
2023-06-07T13:02:28.594Z,96503.28
2023-06-07T13:04:34.433Z,96515.56
2023-06-07T13:06:36.088Z,96501.22
2023-06-07T13:08:37.699Z,96509.88
2023-06-07T13:10:39.230Z,96509.06
2023-06-07T13:12:40.746Z,96507.19
2023-06-07T13:14:42.599Z,96501.78
2023-06-07T13:16:44.196Z,96500.03
2023-06-07T13:18:45.824Z,96498.22
2023-06-07T13:20:48.829Z,96494.47
2023-06-07T13:22:50.416Z,96488.78
2023-06-07T13:24:51.996Z,96486.66
2023-06-07T13:26:54.691Z,96484.47
2023-06-07T13:28:56.361Z,96492.59
2023-06-07T13:30:57.913Z,96488.53
2023-06-07T13:32:59.565Z,96480.38
2023-06-07T13:35:01.152Z,96473.84
2023-06-07T13:37:04.139Z,96482.53
2023-06-07T13:39:05.799Z,96473.03
2023-06-07T13:41:07.331Z,96482.78
2023-06-07T13:43:09.029Z,96468.09
2023-06-07T13:45:11.222Z,96474.06
2023-06-07T13:47:12.755Z,96458.25
2023-06-07T13:49:14.264Z,96475.09
2023-06-07T13:51:18.048Z,96470.34
2023-06-07T13:53:20.924Z,96461.09
2023-06-07T13:55:22.550Z,96448.72
2023-06-07T13:57:27.870Z,96455.47
2023-06-07T13:59:30.070Z,96459.91
2023-06-07T14:01:31.861Z,96456.78
2023-06-07T14:03:34.156Z,96457.66
2023-06-07T14:05:35.952Z,96450.34
2023-06-07T14:07:37.515Z,96453.19
2023-06-07T14:09:40.384Z,96442.72
2023-06-07T14:11:41.934Z,96443.56
2023-06-07T14:13:44.069Z,96443.41
2023-06-07T14:15:45.675Z,96435.53
2023-06-07T14:17:47.300Z,96443.13
2023-06-07T14:19:48.892Z,96436.75
2023-06-07T14:21:50.588Z,96433.59
2023-06-07T14:23:52.244Z,96439.94
2023-06-07T14:25:55.312Z,96401.59
2023-06-07T14:27:57.114Z,96434.75
2023-06-07T14:29:58.753Z,96428.28
2023-06-07T14:32:00.410Z,96426.09
2023-06-07T14:34:02.032Z,96420.09
2023-06-07T14:36:04.281Z,96415.31
2023-06-07T14:38:05.871Z,96411.97
2023-06-07T14:40:08.703Z,96415.81
2023-06-07T14:42:14.902Z,96418.72
2023-06-07T14:44:17.412Z,96419.84
2023-06-07T14:46:19.206Z,96418.06
2023-06-07T14:48:20.935Z,96420.00
2023-06-07T14:50:22.570Z,96412.94
2023-06-07T14:52:24.406Z,96409.97
2023-06-07T14:54:25.999Z,96416.63
2023-06-07T14:56:27.647Z,96410.97
2023-06-07T14:58:30.575Z,96417.81
2023-06-07T15:00:33.496Z,96416.09
2023-06-07T15:02:35.247Z,96419.16
2023-06-07T15:04:38.099Z,96416.50
2023-06-07T15:06:39.898Z,96413.63
2023-06-07T15:08:41.446Z,96409.84
2023-06-07T15:10:42.975Z,96417.47
2023-06-07T15:12:44.620Z,96413.19
2023-06-07T15:14:47.543Z,96416.09
2023-06-07T15:16:49.065Z,96409.19
2023-06-07T15:18:50.663Z,96399.13
2023-06-07T15:20:52.171Z,96404.50
2023-06-07T15:22:53.782Z,96395.06
2023-06-07T15:24:55.343Z,96398.78
2023-06-07T15:26:57.144Z,96399.25
2023-06-07T15:28:59.427Z,96394.38
2023-06-07T15:31:02.528Z,96396.97
2023-06-07T15:33:05.132Z,96393.44
2023-06-07T15:35:11.676Z,96394.69
2023-06-07T15:37:14.357Z,96397.19
2023-06-07T15:39:15.924Z,96386.59
2023-06-07T15:41:17.546Z,96394.38
2023-06-07T15:43:19.143Z,96399.97
2023-06-07T15:45:20.705Z,96398.28
2023-06-07T15:47:23.631Z,96396.41
2023-06-07T15:49:25.233Z,96388.25
2023-06-07T15:51:26.890Z,96395.94
2023-06-07T15:53:28.546Z,96386.97
2023-06-07T15:55:30.060Z,96383.22
2023-06-07T15:57:31.665Z,96356.50
2023-06-07T15:59:33.422Z,96380.75
2023-06-07T16:01:35.032Z,96375.75
2023-06-07T16:03:54.221Z,96371.16
2023-06-07T16:05:57.089Z,96378.38
2023-06-07T16:08:04.425Z,96371.13
2023-06-07T16:10:11.217Z,96370.00
2023-06-07T16:12:12.744Z,96375.84
2023-06-07T16:14:14.254Z,96376.84
2023-06-07T16:16:15.837Z,96376.16
2023-06-07T16:18:17.409Z,96367.75
2023-06-07T16:20:20.335Z,96375.66
2023-06-07T16:22:21.871Z,96356.03
2023-06-07T16:24:23.413Z,96365.00
2023-06-07T16:26:24.969Z,96370.84
2023-06-07T16:28:26.529Z,96380.91
2023-06-07T16:30:28.078Z,96375.94
2023-06-07T16:32:29.682Z,96369.00
2023-06-07T16:34:31.289Z,96378.09
2023-06-07T16:36:34.166Z,96388.63
2023-06-07T16:38:35.797Z,96377.78
2023-06-07T16:40:37.988Z,96380.03
2023-06-07T16:42:39.528Z,96382.56
2023-06-07T16:44:41.105Z,96374.94
2023-06-07T16:46:44.410Z,96358.34
2023-06-07T16:48:48.116Z,96384.22
2023-06-07T16:50:49.699Z,96386.22
2023-06-07T16:52:52.659Z,96385.84
2023-06-07T16:54:54.296Z,96382.31
2023-06-07T16:56:55.989Z,96382.25
2023-06-07T16:58:57.550Z,96373.09
2023-06-07T17:00:59.130Z,96379.56
2023-06-07T17:03:00.783Z,96366.50
2023-06-07T17:05:02.533Z,96376.69
2023-06-07T17:07:04.681Z,96376.19
2023-06-07T17:09:07.583Z,96379.44
2023-06-07T17:11:09.237Z,96371.06
2023-06-07T17:13:10.871Z,96374.13
2023-06-07T17:15:12.463Z,96377.34
2023-06-07T17:17:13.985Z,96375.34
2023-06-07T17:19:15.611Z,96370.66
2023-06-07T17:21:17.159Z,96376.88
2023-06-07T17:23:18.730Z,96373.59
2023-06-07T17:25:21.775Z,96373.56
2023-06-07T17:27:23.165Z,96370.28
2023-06-07T17:29:30.020Z,96372.66
2023-06-07T17:31:32.034Z,96376.91
2023-06-07T17:33:33.601Z,96381.63
2023-06-07T17:35:35.198Z,96375.25
2023-06-07T17:37:36.853Z,96376.75
2023-06-07T17:39:38.544Z,96384.22
2023-06-07T17:41:43.241Z,96375.19
2023-06-07T17:43:44.810Z,96381.13
2023-06-07T17:45:46.437Z,96368.41
2023-06-07T17:47:49.520Z,96376.88
2023-06-07T17:49:51.111Z,96380.34
2023-06-07T17:51:52.677Z,96379.16
2023-06-07T17:53:54.218Z,96378.13
2023-06-07T17:55:55.782Z,96385.06
2023-06-07T17:57:58.761Z,96372.19
2023-06-07T18:00:00.340Z,96379.63
2023-06-07T18:02:01.935Z,96376.78
2023-06-07T18:04:04.063Z,96377.94
2023-06-07T18:06:05.738Z,96364.50
2023-06-07T18:08:07.356Z,96362.09
2023-06-07T18:10:09.650Z,96375.47
2023-06-07T18:12:13.917Z,96374.50
2023-06-07T18:14:17.157Z,96363.97
2023-06-07T18:16:18.784Z,96368.09
2023-06-07T18:18:20.346Z,96376.38
2023-06-07T18:20:21.967Z,96381.25
2023-06-07T18:22:23.521Z,96373.50
2023-06-07T18:24:25.095Z,96378.13
2023-06-07T18:26:26.685Z,96383.63
2023-06-07T18:28:28.398Z,96384.50
2023-06-07T18:30:31.368Z,96381.50
2023-06-07T18:32:32.975Z,96380.44
2023-06-07T18:34:35.311Z,96381.34
2023-06-07T18:36:37.053Z,96391.75
2023-06-07T18:38:38.613Z,96371.34
2023-06-07T18:40:40.194Z,96383.31
2023-06-07T18:42:41.784Z,96376.78
2023-06-07T18:44:43.393Z,96375.72
2023-06-07T18:46:46.807Z,96377.91
2023-06-07T18:48:48.450Z,96362.13
2023-06-07T18:50:50.075Z,96379.25
2023-06-07T18:52:52.362Z,96385.25
2023-06-07T18:54:54.653Z,96386.63
2023-06-07T18:56:56.327Z,96387.69
2023-06-07T18:58:57.911Z,96393.13
2023-06-07T19:00:59.566Z,96394.25
2023-06-07T19:03:05.045Z,96393.44
2023-06-07T19:05:07.813Z,96389.34
2023-06-07T19:07:09.606Z,96388.22
2023-06-07T19:09:11.141Z,96389.84
2023-06-07T19:11:12.814Z,96390.41
2023-06-07T19:13:14.381Z,96388.78
2023-06-07T19:15:15.955Z,96394.75
2023-06-07T19:17:17.557Z,96395.31
2023-06-07T19:19:20.446Z,96394.75
2023-06-07T19:21:22.006Z,96391.47
2023-06-07T19:23:23.583Z,96400.41
2023-06-07T19:25:25.222Z,96401.19
2023-06-07T19:27:26.778Z,96386.50
2023-06-07T19:29:28.686Z,96399.53
2023-06-07T19:31:30.411Z,96409.31
2023-06-07T19:33:31.987Z,96408.25
2023-06-07T19:35:34.916Z,96401.97
2023-06-07T19:37:36.431Z,96406.06
2023-06-07T19:39:38.073Z,96401.16
2023-06-07T19:41:39.604Z,96410.59
2023-06-07T19:43:41.782Z,96415.72
2023-06-07T19:45:43.438Z,96419.78
2023-06-07T19:47:45.143Z,96423.88
2023-06-07T19:49:46.716Z,96416.78
2023-06-07T19:51:49.595Z,96408.53
2023-06-07T19:53:51.151Z,96418.31
2023-06-07T19:55:52.734Z,96419.66
2023-06-07T19:57:54.759Z,96425.31
2023-06-07T19:59:56.352Z,96419.59
2023-06-07T20:01:58.008Z,96425.84
2023-06-07T20:04:19.130Z,96337.09
2023-06-07T20:06:25.378Z,96356.72
2023-06-07T20:08:28.260Z,96411.44
2023-06-07T20:10:29.834Z,96433.19
2023-06-07T20:12:31.488Z,96428.06
2023-06-07T20:14:33.253Z,96428.81
2023-06-07T20:16:34.867Z,96420.38
2023-06-07T20:18:36.591Z,96426.38
2023-06-07T20:20:38.144Z,96430.38
2023-06-07T20:22:39.689Z,96429.00
2023-06-07T20:24:42.569Z,96434.94
2023-06-07T20:26:44.146Z,96435.75
2023-06-07T20:28:45.676Z,96434.91
2023-06-07T20:30:47.271Z,96442.25
2023-06-07T20:32:48.872Z,96437.09
2023-06-07T20:34:50.428Z,96430.28
2023-06-07T20:36:51.999Z,96434.91
2023-06-07T20:38:53.543Z,96436.00
2023-06-07T20:40:56.458Z,96436.53
2023-06-07T20:42:58.020Z,96435.97
2023-06-07T20:44:59.560Z,96435.59
2023-06-07T20:47:01.166Z,96427.72
2023-06-07T20:49:02.954Z,96426.69
2023-06-07T20:51:04.530Z,96426.69
2023-06-07T20:53:06.120Z,96432.91
2023-06-07T20:55:08.400Z,96429.06
2023-06-07T20:57:12.080Z,96431.16
2023-06-07T20:59:13.766Z,96424.34
2023-06-07T21:01:17.397Z,96402.00
2023-06-07T21:03:19.067Z,96438.47
2023-06-07T21:05:20.779Z,96394.25
2023-06-07T21:07:22.513Z,96431.75
2023-06-07T21:09:24.051Z,96432.78
2023-06-07T21:11:25.663Z,96432.53
2023-06-07T21:13:28.694Z,96427.81
2023-06-07T21:15:30.267Z,96433.22
2023-06-07T21:17:32.261Z,96414.22
2023-06-07T21:19:34.218Z,96426.22
2023-06-07T21:21:35.825Z,96420.56
2023-06-07T21:23:37.570Z,96433.00
2023-06-07T21:25:39.223Z,96425.34
2023-06-07T21:27:40.732Z,96436.75
2023-06-07T21:29:43.628Z,96432.63
2023-06-07T21:31:45.650Z,96434.81
2023-06-07T21:33:59.822Z,96431.19
2023-06-07T21:36:01.356Z,96432.38
2023-06-07T21:38:02.958Z,96431.56
2023-06-07T21:40:05.846Z,96429.38
2023-06-07T21:42:07.989Z,96437.41
2023-06-07T21:44:09.674Z,96429.63
2023-06-07T21:46:12.572Z,96432.25
2023-06-07T21:48:14.315Z,96437.78
2023-06-07T21:50:15.967Z,96433.63
2023-06-07T21:52:17.644Z,96437.91
2023-06-07T21:54:19.198Z,96434.69
2023-06-07T21:56:20.723Z,96428.78
2023-06-07T21:58:22.356Z,96430.72
2023-06-07T22:00:23.918Z,96425.38
2023-06-07T22:02:26.998Z,96425.13
2023-06-07T22:04:28.646Z,96432.81
2023-06-07T22:06:30.263Z,96435.75
2023-06-07T22:08:31.802Z,96410.00
2023-06-07T22:10:33.379Z,96433.91
2023-06-07T22:12:34.933Z,96427.28
2023-06-07T22:14:37.009Z,96425.00
2023-06-07T22:16:38.661Z,96430.97
2023-06-07T22:18:41.841Z,96405.88
2023-06-07T22:20:43.814Z,96429.41
2023-06-07T22:22:45.432Z,96387.72
2023-06-07T22:24:47.134Z,96429.69
2023-06-07T22:26:48.679Z,96431.56
2023-06-07T22:28:50.224Z,96423.69
2023-06-07T22:30:51.781Z,96413.63
2023-06-07T22:32:53.349Z,96428.19
2023-06-07T22:34:56.722Z,96383.47
2023-06-07T22:36:58.223Z,96435.16
2023-06-07T22:39:00.467Z,96436.22
2023-06-07T22:41:02.039Z,96433.84
2023-06-07T22:43:03.592Z,96423.53
2023-06-07T22:45:06.305Z,96418.78
2023-06-07T22:47:08.322Z,96428.59
2023-06-07T22:49:09.868Z,96412.09
2023-06-07T22:51:12.897Z,96423.03
2023-06-07T22:53:15.443Z,96426.31
2023-06-07T22:55:17.109Z,96380.09
2023-06-07T22:57:18.666Z,96419.56
2023-06-07T22:59:20.356Z,96415.81
2023-06-07T23:01:21.948Z,96414.66
2023-06-07T23:03:23.624Z,96415.72
2023-06-07T23:05:25.400Z,96409.97
2023-06-07T23:07:28.387Z,96391.38
2023-06-07T23:09:30.049Z,96417.25
2023-06-07T23:11:32.088Z,96411.97
2023-06-07T23:13:33.675Z,96411.31
2023-06-07T23:15:35.445Z,96398.22
2023-06-07T23:17:37.050Z,96406.22
2023-06-07T23:19:38.643Z,96405.63
2023-06-07T23:21:40.212Z,96411.03
2023-06-07T23:23:43.134Z,96402.50
2023-06-07T23:25:45.137Z,96417.63
2023-06-07T23:27:46.841Z,96378.97
2023-06-07T23:29:48.426Z,96400.28
2023-06-07T23:31:49.992Z,96410.06
2023-06-07T23:33:51.612Z,96389.56
2023-06-07T23:35:53.201Z,96387.44
2023-06-07T23:37:54.801Z,96399.94
2023-06-07T23:40:01.865Z,96402.06
2023-06-07T23:42:05.085Z,96400.22
2023-06-07T23:44:06.931Z,96392.25
2023-06-07T23:46:08.666Z,96386.78
2023-06-07T23:48:10.275Z,96407.66
2023-06-07T23:50:11.911Z,96397.34
2023-06-07T23:52:13.484Z,96396.81
2023-06-07T23:54:15.085Z,96394.84
2023-06-07T23:56:18.083Z,96396.97
2023-06-07T23:58:19.633Z,96395.91
